PWSweather.com
Personal Weather Stations
Station Observations
MARRWS
Allansford VictoriaAU 3277

Allansford VictoriaAU 3277

Lat: -38.4003683814149, Lon: 142.569826841354

Elevation: 36

Station Type: Fine Offset X7062

http://home.vicnet.net.au/~marr/Weather/

Latest ConditionsUpdated 9:00:01 PM GMT+10:10 Monday, Apr 24, 2017
Currently Today's Max Today's Min Today's Average
Temperature 59.2°F15.1°C 72.1°F22.3°C 54.3°F12.4°C 60.8°F16.0°C
Dew Point 58.9°F14.9°C 67.7°F19.8°C 53.5°F11.9°C 58.4°F14.7°C
Winds Calm Calm 2.0 mph N3.2 kmh N - 0.1 mph 0.2 kmh
Wind Gusts -- 6.9 mph11.1 kmh - -
Humidity 99% 100% 64% 92%
Pressure 29.98 in1015.2 mb 30.27 in1025.1 mb 29.98 in1015.2 mb -
Precipitation - 0.74 in18.8 mm - -
Hour Temp Dew Point Humidity Winds Wind Gusts Pressure Precip Precip Rate Daily Precip Total
09:00 PM 59.2°F15.1°C 58.9°F14.9°C 99% Calm Calm -- 29.98 in1015.2 mb 0.01 in0.3 mm 0.00 in0.0 mm 0.74 in18.8 mm
08:50 PM 59.2°F15.1°C 58.9°F14.9°C 99% 0.1 mph E0.2 kmh E 2.2 mph3.5 kmh 29.98 in1015.2 mb 0.01 in0.3 mm 0.00 in0.0 mm 0.74 in18.8 mm
08:40 PM 59.2°F15.1°C 58.9°F14.9°C 99% Calm Calm 1.6 mph2.6 kmh 29.98 in1015.2 mb 0.01 in0.3 mm 0.00 in0.0 mm 0.74 in18.8 mm
08:30 PM 59.2°F15.1°C 58.9°F14.9°C 99% 0.3 mph ENE0.5 kmh ENE 3.8 mph6.1 kmh 29.99 in1015.6 mb 0.01 in0.3 mm 0.00 in0.0 mm 0.74 in18.8 mm
08:20 PM 59.2°F15.1°C 58.9°F14.9°C 99% 0.6 mph NE1.0 kmh NE 3.8 mph6.1 kmh 29.99 in1015.6 mb 0.01 in0.3 mm 0.00 in0.0 mm 0.73 in18.5 mm
08:10 PM 59.2°F15.1°C 58.9°F14.9°C 99% 0.3 mph NE0.5 kmh NE 3.1 mph5.0 kmh 29.99 in1015.6 mb 0.02 in0.5 mm 0.00 in0.0 mm 0.73 in18.5 mm
08:00 PM 59.2°F15.1°C 58.9°F14.9°C 99% 0.3 mph E0.5 kmh E 3.8 mph6.1 kmh 29.98 in1015.2 mb 0.02 in0.5 mm 0.00 in0.0 mm 0.73 in18.5 mm
07:50 PM 59.7°F15.4°C 59.5°F15.3°C 99% 0.3 mph E0.5 kmh E 3.8 mph6.1 kmh 29.99 in1015.6 mb 0.04 in1.0 mm 0.00 in0.0 mm 0.73 in18.5 mm
07:40 PM 59.7°F15.4°C 59.5°F15.3°C 99% 0.4 mph E0.6 kmh E 3.8 mph6.1 kmh 30.00 in1015.9 mb 0.05 in1.3 mm 0.00 in0.0 mm 0.73 in18.5 mm
07:30 PM 59.7°F15.4°C 59.5°F15.3°C 99% 0.6 mph ENE1.0 kmh ENE 3.8 mph6.1 kmh 30.00 in1015.9 mb 0.09 in2.3 mm 0.00 in0.0 mm 0.73 in18.5 mm
07:20 PM 59.9°F15.5°C 59.6°F15.3°C 99% 0.8 mph E1.3 kmh E 5.4 mph8.7 kmh 30.00 in1015.9 mb 0.14 in3.6 mm 0.00 in0.0 mm 0.72 in18.3 mm
07:10 PM 59.4°F15.2°C 59.1°F15.1°C 99% 0.5 mph ESE0.8 kmh ESE 3.8 mph6.1 kmh 30.00 in1015.9 mb 0.20 in5.1 mm 0.00 in0.0 mm 0.71 in18.0 mm
07:00 PM 59.4°F15.2°C 59.1°F15.1°C 99% 0.5 mph E0.8 kmh E 5.4 mph8.7 kmh 30.01 in1016.3 mb 0.31 in7.9 mm 0.00 in0.0 mm 0.71 in18.0 mm
06:50 PM 60.1°F15.6°C 59.8°F15.4°C 99% 0.5 mph E0.8 kmh E 4.5 mph7.2 kmh 30.01 in1016.3 mb 0.39 in9.9 mm 0.00 in0.0 mm 0.70 in17.8 mm
06:40 PM 60.1°F15.6°C 59.8°F15.4°C 99% 0.5 mph E0.8 kmh E 5.4 mph8.7 kmh 30.01 in1016.3 mb 0.44 in11.2 mm 0.00 in0.0 mm 0.69 in17.5 mm
06:30 PM 60.1°F15.6°C 59.8°F15.4°C 99% 0.6 mph SE1.0 kmh SE 6.9 mph11.1 kmh 30.02 in1016.6 mb 0.45 in11.4 mm 0.00 in0.0 mm 0.64 in16.3 mm
06:20 PM 60.3°F15.7°C 60.0°F15.6°C 99% 1.2 mph E1.9 kmh E 6.0 mph9.7 kmh 30.02 in1016.6 mb 0.45 in11.4 mm 0.60 in15.2 mm 0.58 in14.7 mm
06:10 PM 60.4°F15.8°C 60.5°F15.8°C 100% 0.1 mph SE0.2 kmh SE 2.2 mph3.5 kmh 30.02 in1016.6 mb 0.35 in8.9 mm 0.54 in13.7 mm 0.48 in12.2 mm
06:00 PM 60.4°F15.8°C 60.5°F15.8°C 100% 0.2 mph SE0.3 kmh SE 3.8 mph6.1 kmh 30.02 in1016.6 mb 0.26 in6.6 mm 0.11 in2.8 mm 0.39 in9.9 mm
05:50 PM 60.6°F15.9°C 60.6°F15.9°C 100% 0.6 mph SE1.0 kmh SE 6.0 mph9.7 kmh 30.03 in1016.9 mb 0.17 in4.3 mm 0.30 in7.6 mm 0.30 in7.6 mm
05:40 PM 60.8°F16.0°C 60.0°F15.6°C 97% Calm Calm 2.2 mph3.5 kmh 30.03 in1016.9 mb 0.12 in3.0 mm 0.30 in7.6 mm 0.25 in6.4 mm
05:30 PM 61.0°F16.1°C 60.1°F15.6°C 97% Calm Calm 1.6 mph2.6 kmh 30.02 in1016.6 mb 0.07 in1.8 mm 0.30 in7.6 mm 0.19 in4.8 mm
05:20 PM 60.8°F16.0°C 59.7°F15.4°C 96% 0.2 mph ESE0.3 kmh ESE 3.1 mph5.0 kmh 30.01 in1016.3 mb 0.02 in0.5 mm 0.00 in0.0 mm 0.13 in3.3 mm
05:10 PM 61.0°F16.1°C 59.8°F15.4°C 96% Calm Calm 3.1 mph5.0 kmh 30.01 in1016.3 mb 0.04 in1.0 mm 0.00 in0.0 mm 0.13 in3.3 mm
05:00 PM 61.0°F16.1°C 59.8°F15.4°C 96% Calm Calm 0.7 mph1.1 kmh 30.02 in1016.6 mb 0.04 in1.0 mm 0.00 in0.0 mm 0.13 in3.3 mm
04:50 PM 61.0°F16.1°C 59.6°F15.3°C 95% Calm Calm 1.6 mph2.6 kmh 30.01 in1016.3 mb 0.05 in1.3 mm 0.00 in0.0 mm 0.13 in3.3 mm
04:40 PM 61.0°F16.1°C 59.6°F15.3°C 95% 0.1 mph ESE0.2 kmh ESE 3.1 mph5.0 kmh 30.02 in1016.6 mb 0.05 in1.3 mm 0.06 in1.5 mm 0.13 in3.3 mm
04:30 PM 61.3°F16.3°C 59.9°F15.5°C 95% Calm Calm 3.8 mph6.1 kmh 30.02 in1016.6 mb 0.04 in1.0 mm 0.12 in3.0 mm 0.12 in3.0 mm
04:20 PM 61.5°F16.4°C 60.1°F15.6°C 95% 0.1 mph ESE0.2 kmh ESE 2.2 mph3.5 kmh 30.02 in1016.6 mb 0.02 in0.5 mm 0.06 in1.5 mm 0.11 in2.8 mm
04:10 PM 61.9°F16.6°C 60.5°F15.8°C 95% Calm Calm 1.6 mph2.6 kmh 30.02 in1016.6 mb 0.01 in0.3 mm 0.00 in0.0 mm 0.09 in2.3 mm
04:00 PM 62.1°F16.7°C 60.6°F15.9°C 95% Calm Calm 1.6 mph2.6 kmh 30.01 in1016.3 mb 0.01 in0.3 mm 0.00 in0.0 mm 0.09 in2.3 mm
03:50 PM 62.2°F16.8°C 60.8°F16.0°C 95% Calm Calm 1.6 mph2.6 kmh 30.01 in1016.3 mb 0.01 in0.3 mm 0.00 in0.0 mm 0.08 in2.0 mm
03:40 PM 62.2°F16.8°C 60.8°F16.0°C 95% 0.1 mph SE0.2 kmh SE 1.6 mph2.6 kmh 30.01 in1016.3 mb 0.02 in0.5 mm 0.00 in0.0 mm 0.08 in2.0 mm
03:30 PM 62.4°F16.9°C 61.0°F16.1°C 95% 0.1 mph SE0.2 kmh SE 2.2 mph3.5 kmh 30.02 in1016.6 mb 0.04 in1.0 mm 0.00 in0.0 mm 0.08 in2.0 mm
03:20 PM 62.4°F16.9°C 61.0°F16.1°C 95% Calm Calm 1.6 mph2.6 kmh 30.02 in1016.6 mb 0.06 in1.5 mm 0.00 in0.0 mm 0.08 in2.0 mm
03:10 PM 62.2°F16.8°C 60.5°F15.8°C 94% Calm Calm 1.6 mph2.6 kmh 30.02 in1016.6 mb 0.07 in1.8 mm 0.00 in0.0 mm 0.08 in2.0 mm
03:00 PM 61.9°F16.6°C 59.9°F15.5°C 93% Calm Calm 1.6 mph2.6 kmh 30.03 in1016.9 mb 0.08 in2.0 mm 0.01 in0.3 mm 0.08 in2.0 mm
02:50 PM 62.1°F16.7°C 59.7°F15.4°C 92% Calm Calm 0.7 mph1.1 kmh 30.03 in1016.9 mb 0.07 in1.8 mm 0.06 in1.5 mm 0.07 in1.8 mm
02:40 PM 62.4°F16.9°C 59.8°F15.4°C 91% Calm Calm 0.7 mph1.1 kmh 30.04 in1017.3 mb 0.06 in1.5 mm 0.06 in1.5 mm 0.06 in1.5 mm
02:30 PM 62.4°F16.9°C 59.5°F15.3°C 90% Calm Calm 0.7 mph1.1 kmh 30.05 in1017.6 mb 0.05 in1.3 mm 0.18 in4.6 mm 0.05 in1.3 mm
02:20 PM 63.1°F17.3°C 59.5°F15.3°C 88% Calm Calm 0.7 mph1.1 kmh 30.05 in1017.6 mb 0.02 in0.5 mm 0.06 in1.5 mm 0.02 in0.5 mm
02:10 PM 63.5°F17.5°C 59.3°F15.2°C 86% Calm Calm -- 30.06 in1017.9 mb 0.01 in0.3 mm 0.06 in1.5 mm 0.01 in0.3 mm
02:00 PM 63.9°F17.7°C 59.0°F15.0°C 84% Calm Calm -- 30.06 in1017.9 mb 0.00 in0.0 mm 0.00 in0.0 mm 0.00 in0.0 mm
01:50 PM 64.2°F17.9°C 58.6°F14.8°C 82% Calm Calm -- 30.07 in1018.3 mb 0.00 in0.0 mm 0.00 in0.0 mm 0.00 in0.0 mm
01:40 PM 64.9°F18.3°C 59.0°F15.0°C 81% Calm Calm -- 30.07 in1018.3 mb 0.00 in0.0 mm 0.00 in0.0 mm 0.00 in0.0 mm
01:30 PM 66.6°F19.2°C 58.8°F14.9°C 76% Calm Calm -- 30.07 in1018.3 mb 0.00 in0.0 mm 0.00 in0.0 mm 0.00 in0.0 mm
01:20 PM 67.3°F19.6°C 59.1°F15.1°C 75% Calm Calm -- 30.07 in1018.3 mb 0.00 in0.0 mm 0.00 in0.0 mm 0.00 in0.0 mm
01:10 PM 67.8°F19.9°C 59.3°F15.2°C 74% Calm Calm 0.7 mph1.1 kmh 30.07 in1018.3 mb 0.00 in0.0 mm 0.00 in0.0 mm 0.00 in0.0 mm
01:00 PM 68.0°F20.0°C 58.7°F14.8°C 72% Calm Calm -- 30.08 in1018.6 mb 0.00 in0.0 mm 0.00 in0.0 mm 0.00 in0.0 mm
12:50 PM 68.9°F20.5°C 59.1°F15.1°C 71% Calm Calm 1.6 mph2.6 kmh 30.08 in1018.6 mb 0.00 in0.0 mm 0.00 in0.0 mm 0.00 in0.0 mm
12:40 PM 69.3°F20.7°C 59.9°F15.5°C 72% Calm Calm 0.7 mph1.1 kmh 30.08 in1018.6 mb 0.00 in0.0 mm 0.00 in0.0 mm 0.00 in0.0 mm
12:30 PM 68.9°F20.5°C 59.5°F15.3°C 72% Calm Calm 0.7 mph1.1 kmh 30.09 in1019.0 mb 0.00 in0.0 mm 0.00 in0.0 mm 0.00 in0.0 mm
12:20 PM 68.4°F20.2°C 59.8°F15.4°C 74% Calm Calm 0.7 mph1.1 kmh 30.10 in1019.3 mb 0.00 in0.0 mm 0.00 in0.0 mm 0.00 in0.0 mm
12:10 PM 67.3°F19.6°C 58.4°F14.7°C 73% Calm Calm 2.2 mph3.5 kmh 30.10 in1019.3 mb 0.00 in0.0 mm 0.00 in0.0 mm 0.00 in0.0 mm
12:00 PM 68.5°F20.3°C 59.6°F15.3°C 73% 0.8 mph N1.3 kmh N 4.5 mph7.2 kmh 30.10 in1019.3 mb 0.00 in0.0 mm 0.00 in0.0 mm 0.00 in0.0 mm
11:50 AM 68.4°F20.2°C 58.6°F14.8°C 71% Calm Calm 1.6 mph2.6 kmh 30.11 in1019.6 mb 0.00 in0.0 mm 0.00 in0.0 mm 0.00 in0.0 mm
11:40 AM 70.7°F21.5°C 60.1°F15.6°C 69% 0.5 mph N0.8 kmh N 4.5 mph7.2 kmh 30.11 in1019.6 mb 0.00 in0.0 mm 0.00 in0.0 mm 0.00 in0.0 mm
11:30 AM 72.1°F22.3°C 59.3°F15.2°C 64% 2.0 mph N3.2 kmh N 5.4 mph8.7 kmh 30.11 in1019.6 mb 0.00 in0.0 mm 0.00 in0.0 mm 0.00 in0.0 mm
11:20 AM 71.4°F21.9°C 61.2°F16.2°C 70% Calm Calm 0.7 mph1.1 kmh 30.11 in1019.6 mb 0.00 in0.0 mm 0.00 in0.0 mm 0.00 in0.0 mm
11:10 AM 68.4°F20.2°C 59.0°F15.0°C 72% Calm Calm 0.7 mph1.1 kmh 30.12 in1020.0 mb 0.00 in0.0 mm 0.00 in0.0 mm 0.00 in0.0 mm
11:00 AM 68.5°F20.3°C 58.8°F14.9°C 71% Calm Calm 0.7 mph1.1 kmh 30.12 in1020.0 mb 0.00 in0.0 mm 0.00 in0.0 mm 0.00 in0.0 mm
10:50 AM 69.3°F20.7°C 59.5°F15.3°C 71% Calm Calm 1.6 mph2.6 kmh 30.12 in1020.0 mb 0.00 in0.0 mm 0.00 in0.0 mm 0.00 in0.0 mm
10:40 AM 67.1°F19.5°C 58.9°F14.9°C 75% 0.3 mph NE0.5 kmh NE 3.1 mph5.0 kmh 30.12 in1020.0 mb 0.00 in0.0 mm 0.00 in0.0 mm 0.00 in0.0 mm
10:30 AM 67.1°F19.5°C 58.6°F14.8°C 74% 0.2 mph NNE0.3 kmh NNE 4.5 mph7.2 kmh 30.12 in1020.0 mb 0.00 in0.0 mm 0.00 in0.0 mm 0.00 in0.0 mm
10:20 AM 67.5°F19.7°C 59.3°F15.2°C 75% 0.7 mph NNE1.1 kmh NNE 5.4 mph8.7 kmh 30.13 in1020.3 mb 0.00 in0.0 mm 0.00 in0.0 mm 0.00 in0.0 mm
10:10 AM 66.6°F19.2°C 59.1°F15.1°C 77% 0.8 mph NNE1.3 kmh NNE 5.4 mph8.7 kmh 30.13 in1020.3 mb 0.00 in0.0 mm 0.00 in0.0 mm 0.00 in0.0 mm
10:00 AM 67.5°F19.7°C 59.3°F15.2°C 75% Calm Calm 0.7 mph1.1 kmh 30.14 in1020.7 mb 0.00 in0.0 mm 0.00 in0.0 mm 0.00 in0.0 mm
09:50 AM 68.9°F20.5°C 60.7°F15.9°C 75% Calm Calm 0.7 mph1.1 kmh 30.14 in1020.7 mb 0.00 in0.0 mm 0.00 in0.0 mm 0.00 in0.0 mm
09:40 AM 68.9°F20.5°C 60.3°F15.7°C 74% Calm Calm 0.7 mph1.1 kmh 30.14 in1020.7 mb 0.00 in0.0 mm 0.00 in0.0 mm 0.00 in0.0 mm
09:30 AM 70.3°F21.3°C 63.2°F17.3°C 78% Calm Calm 0.7 mph1.1 kmh 30.14 in1020.7 mb 0.00 in0.0 mm 0.00 in0.0 mm 0.00 in0.0 mm
09:20 AM 70.7°F21.5°C 67.7°F19.8°C 90% Calm Calm -- 30.15 in1021.0 mb 0.00 in0.0 mm 0.00 in0.0 mm 0.00 in0.0 mm
09:10 AM 64.2°F17.9°C 63.1°F17.3°C 96% Calm Calm 0.7 mph1.1 kmh 30.15 in1021.0 mb 0.00 in0.0 mm 0.00 in0.0 mm 0.00 in0.0 mm
09:00 AM 62.2°F16.8°C 62.3°F16.8°C 100% Calm Calm -- 30.15 in1021.0 mb 0.00 in0.0 mm 0.00 in0.0 mm 0.00 in0.0 mm
08:50 AM 61.5°F16.4°C 61.5°F16.4°C 100% Calm Calm 0.7 mph1.1 kmh 30.16 in1021.3 mb 0.00 in0.0 mm 0.00 in0.0 mm 0.00 in0.0 mm
08:40 AM 60.4°F15.8°C 60.2°F15.7°C 99% Calm Calm 0.7 mph1.1 kmh 30.16 in1021.3 mb 0.00 in0.0 mm 0.00 in0.0 mm 0.00 in0.0 mm
08:30 AM 59.9°F15.5°C 59.6°F15.3°C 99% Calm Calm 0.7 mph1.1 kmh 30.16 in1021.3 mb 0.00 in0.0 mm 0.00 in0.0 mm 0.00 in0.0 mm
08:20 AM 59.7°F15.4°C 59.5°F15.3°C 99% Calm Calm 0.7 mph1.1 kmh 30.16 in1021.3 mb 0.00 in0.0 mm 0.00 in0.0 mm 0.00 in0.0 mm
08:10 AM 59.2°F15.1°C 58.9°F14.9°C 99% Calm Calm 1.6 mph2.6 kmh 30.16 in1021.3 mb 0.00 in0.0 mm 0.00 in0.0 mm 0.00 in0.0 mm
08:00 AM 59.0°F15.0°C 58.7°F14.8°C 99% Calm Calm 0.7 mph1.1 kmh 30.17 in1021.7 mb 0.00 in0.0 mm 0.00 in0.0 mm 0.00 in0.0 mm
07:50 AM 58.5°F14.7°C 58.2°F14.6°C 99% Calm Calm 0.7 mph1.1 kmh 30.16 in1021.3 mb 0.00 in0.0 mm 0.00 in0.0 mm 0.00 in0.0 mm
07:40 AM 58.5°F14.7°C 58.2°F14.6°C 99% Calm Calm 0.7 mph1.1 kmh 30.17 in1021.7 mb 0.00 in0.0 mm 0.00 in0.0 mm 0.00 in0.0 mm
07:30 AM 58.5°F14.7°C 58.2°F14.6°C 99% Calm Calm -- 30.17 in1021.7 mb 0.00 in0.0 mm 0.00 in0.0 mm 0.00 in0.0 mm
07:20 AM 58.5°F14.7°C 58.2°F14.6°C 99% Calm Calm -- 30.16 in1021.3 mb 0.00 in0.0 mm 0.00 in0.0 mm 0.00 in0.0 mm
07:10 AM 57.4°F14.1°C 57.1°F13.9°C 99% Calm Calm -- 30.16 in1021.3 mb 0.00 in0.0 mm 0.00 in0.0 mm 0.00 in0.0 mm
07:00 AM 57.4°F14.1°C 57.1°F13.9°C 99% Calm Calm -- 30.17 in1021.7 mb 0.00 in0.0 mm 0.00 in0.0 mm 0.00 in0.0 mm
06:50 AM 57.4°F14.1°C 57.1°F13.9°C 99% Calm Calm -- 30.17 in1021.7 mb 0.00 in0.0 mm 0.00 in0.0 mm 0.00 in0.0 mm
06:40 AM 57.4°F14.1°C 57.1°F13.9°C 99% Calm Calm -- 30.17 in1021.7 mb 0.00 in0.0 mm 0.00 in0.0 mm 0.00 in0.0 mm
06:30 AM 57.4°F14.1°C 57.1°F13.9°C 99% Calm Calm -- 30.17 in1021.7 mb 0.00 in0.0 mm 0.00 in0.0 mm 0.00 in0.0 mm
06:20 AM 57.4°F14.1°C 57.1°F13.9°C 99% Calm Calm -- 30.18 in1022.0 mb 0.00 in0.0 mm 0.00 in0.0 mm 0.00 in0.0 mm
06:10 AM 57.4°F14.1°C 57.1°F13.9°C 99% Calm Calm -- 30.18 in1022.0 mb 0.00 in0.0 mm 0.00 in0.0 mm 0.00 in0.0 mm
06:00 AM 57.4°F14.1°C 57.1°F13.9°C 99% Calm Calm -- 30.18 in1022.0 mb 0.00 in0.0 mm 0.00 in0.0 mm 0.00 in0.0 mm
05:50 AM 57.4°F14.1°C 57.1°F13.9°C 99% Calm Calm -- 30.18 in1022.0 mb 0.00 in0.0 mm 0.00 in0.0 mm 0.00 in0.0 mm
05:40 AM 57.4°F14.1°C 57.1°F13.9°C 99% Calm Calm -- 30.17 in1021.7 mb 0.00 in0.0 mm 0.00 in0.0 mm 0.00 in0.0 mm
05:30 AM 57.4°F14.1°C 57.1°F13.9°C 99% Calm Calm -- 30.17 in1021.7 mb 0.00 in0.0 mm 0.00 in0.0 mm 0.00 in0.0 mm
05:20 AM 57.4°F14.1°C 57.1°F13.9°C 99% Calm Calm -- 30.18 in1022.0 mb 0.00 in0.0 mm 0.00 in0.0 mm 0.00 in0.0 mm
05:10 AM 57.2°F14.0°C 56.9°F13.8°C 99% Calm Calm -- 30.18 in1022.0 mb 0.00 in0.0 mm 0.00 in0.0 mm 0.00 in0.0 mm
05:00 AM 57.2°F14.0°C 56.9°F13.8°C 99% Calm Calm -- 30.18 in1022.0 mb 0.00 in0.0 mm 0.00 in0.0 mm 0.00 in0.0 mm
04:50 AM 57.2°F14.0°C 56.9°F13.8°C 99% Calm Calm -- 30.18 in1022.0 mb 0.00 in0.0 mm 0.00 in0.0 mm 0.00 in0.0 mm
04:40 AM 57.0°F13.9°C 56.8°F13.8°C 99% Calm Calm -- 30.18 in1022.0 mb 0.00 in0.0 mm 0.00 in0.0 mm 0.00 in0.0 mm
04:30 AM 57.0°F13.9°C 56.8°F13.8°C 99% Calm Calm -- 30.18 in1022.0 mb 0.00 in0.0 mm 0.00 in0.0 mm 0.00 in0.0 mm
04:20 AM 57.0°F13.9°C 56.8°F13.8°C 99% Calm Calm -- 30.18 in1022.0 mb 0.00 in0.0 mm 0.00 in0.0 mm 0.00 in0.0 mm
04:10 AM 56.8°F13.8°C 56.6°F13.7°C 99% Calm Calm -- 30.19 in1022.4 mb 0.00 in0.0 mm 0.00 in0.0 mm 0.00 in0.0 mm
04:00 AM 56.8°F13.8°C 56.6°F13.7°C 99% Calm Calm -- 30.19 in1022.4 mb 0.00 in0.0 mm 0.00 in0.0 mm 0.00 in0.0 mm
03:50 AM 56.7°F13.7°C 56.4°F13.6°C 99% Calm Calm -- 30.19 in1022.4 mb 0.00 in0.0 mm 0.00 in0.0 mm 0.00 in0.0 mm
03:40 AM 56.5°F13.6°C 56.2°F13.4°C 99% Calm Calm -- 30.19 in1022.4 mb 0.00 in0.0 mm 0.00 in0.0 mm 0.00 in0.0 mm
03:30 AM 56.5°F13.6°C 56.2°F13.4°C 99% Calm Calm -- 30.20 in1022.7 mb 0.00 in0.0 mm 0.00 in0.0 mm 0.00 in0.0 mm
03:20 AM 56.3°F13.5°C 56.0°F13.3°C 99% Calm Calm -- 30.20 in1022.7 mb 0.00 in0.0 mm 0.00 in0.0 mm 0.00 in0.0 mm
03:10 AM 55.9°F13.3°C 55.7°F13.2°C 99% Calm Calm -- 30.21 in1023.0 mb 0.00 in0.0 mm 0.00 in0.0 mm 0.00 in0.0 mm
03:00 AM 55.8°F13.2°C 55.5°F13.1°C 99% Calm Calm -- 30.21 in1023.0 mb 0.00 in0.0 mm 0.00 in0.0 mm 0.00 in0.0 mm
02:50 AM 55.8°F13.2°C 55.5°F13.1°C 99% Calm Calm -- 30.21 in1023.0 mb 0.00 in0.0 mm 0.00 in0.0 mm 0.00 in0.0 mm
02:40 AM 55.6°F13.1°C 55.3°F12.9°C 99% Calm Calm -- 30.22 in1023.4 mb 0.00 in0.0 mm 0.00 in0.0 mm 0.00 in0.0 mm
02:30 AM 55.4°F13.0°C 55.1°F12.8°C 99% Calm Calm -- 30.22 in1023.4 mb 0.00 in0.0 mm 0.00 in0.0 mm 0.00 in0.0 mm
02:20 AM 55.2°F12.9°C 54.4°F12.4°C 97% Calm Calm -- 30.22 in1023.4 mb 0.00 in0.0 mm 0.00 in0.0 mm 0.00 in0.0 mm
02:10 AM 55.0°F12.8°C 54.2°F12.3°C 97% Calm Calm -- 30.23 in1023.7 mb 0.00 in0.0 mm 0.00 in0.0 mm 0.00 in0.0 mm
02:00 AM 54.7°F12.6°C 53.9°F12.2°C 97% Calm Calm -- 30.23 in1023.7 mb 0.00 in0.0 mm 0.00 in0.0 mm 0.00 in0.0 mm
01:50 AM 54.9°F12.7°C 54.0°F12.2°C 97% Calm Calm -- 30.24 in1024.0 mb 0.00 in0.0 mm 0.00 in0.0 mm 0.00 in0.0 mm
01:40 AM 54.9°F12.7°C 54.0°F12.2°C 97% Calm Calm -- 30.24 in1024.0 mb 0.00 in0.0 mm 0.00 in0.0 mm 0.00 in0.0 mm
01:30 AM 54.9°F12.7°C 54.0°F12.2°C 97% Calm Calm -- 30.24 in1024.0 mb 0.00 in0.0 mm 0.00 in0.0 mm 0.00 in0.0 mm
01:20 AM 54.9°F12.7°C 54.0°F12.2°C 97% Calm Calm -- 30.25 in1024.4 mb 0.00 in0.0 mm 0.00 in0.0 mm 0.00 in0.0 mm
01:10 AM 54.7°F12.6°C 53.9°F12.2°C 97% Calm Calm -- 30.25 in1024.4 mb 0.00 in0.0 mm 0.00 in0.0 mm 0.00 in0.0 mm
01:00 AM 54.3°F12.4°C 53.5°F11.9°C 97% Calm Calm -- 30.25 in1024.4 mb 0.00 in0.0 mm 0.00 in0.0 mm 0.00 in0.0 mm
12:50 AM 54.5°F12.5°C 53.7°F12.1°C 97% Calm Calm -- 30.25 in1024.4 mb 0.00 in0.0 mm 0.00 in0.0 mm 0.00 in0.0 mm
12:40 AM 54.9°F12.7°C 54.0°F12.2°C 97% Calm Calm -- 30.26 in1024.7 mb 0.00 in0.0 mm 0.00 in0.0 mm 0.00 in0.0 mm
12:30 AM 54.9°F12.7°C 54.0°F12.2°C 97% Calm Calm -- 30.26 in1024.7 mb 0.00 in0.0 mm 0.00 in0.0 mm 0.00 in0.0 mm
12:20 AM 55.0°F12.8°C 54.2°F12.3°C 97% Calm Calm -- 30.26 in1024.7 mb 0.00 in0.0 mm 0.00 in0.0 mm 0.00 in0.0 mm
12:10 AM 55.2°F12.9°C 54.4°F12.4°C 97% Calm Calm -- 30.27 in1025.1 mb 0.00 in0.0 mm 0.00 in0.0 mm 0.00 in0.0 mm
12:00 AM 55.0°F12.8°C 54.2°F12.3°C 97% Calm Calm -- 30.27 in1025.1 mb 0.00 in0.0 mm 0.00 in0.0 mm 0.00 in0.0 mm